Time;durP1;ratioP1;P1;durP2;ratioP2;P2;SDS_P1;SDS_P2;PMS_P1;PMS_P2;Temp;Humidity;BMP_temperature;BMP_pressure;BME280_temperature;BME280_humidity;BME280_pressure;Samples;Min_cycle;Max_cycle;Signal;HPM_P1;HPM_P2
2023/06/20 00:00:26;;;;;;;10.25;5.10;;;23.10;99.90;;;;;;7282347;19;20297;-80
2023/06/20 00:02:52;;;;;;;11.27;5.80;;;22.90;99.90;;;;;;7282320;19;20186;-81
2023/06/20 00:05:18;;;;;;;12.63;6.20;;;22.80;99.90;;;;;;7283445;19;20191;-81
2023/06/20 00:07:43;;;;;;;10.57;5.70;;;22.70;99.90;;;;;;7283766;19;20192;-81
2023/06/20 00:10:09;;;;;;;10.50;5.80;;;22.60;99.90;;;;;;7281083;19;20181;-81
2023/06/20 00:12:35;;;;;;;9.10;5.63;;;22.40;99.90;;;;;;7283120;19;20200;-81
2023/06/20 00:15:01;;;;;;;10.63;5.87;;;22.50;99.90;;;;;;7304613;19;20185;-82
2023/06/20 00:17:27;;;;;;;12.13;6.03;;;22.60;99.90;;;;;;7283417;19;20181;-81
2023/06/20 00:19:52;;;;;;;10.77;6.03;;;22.60;99.90;;;;;;7284343;19;20184;-81
2023/06/20 00:22:18;;;;;;;10.63;6.07;;;22.50;99.90;;;;;;7282932;19;20185;-83
2023/06/20 00:24:44;;;;;;;11.50;6.07;;;22.50;99.90;;;;;;7283751;19;20655;-81
2023/06/20 00:27:10;;;;;;;9.57;5.90;;;22.60;99.90;;;;;;7280375;19;20211;-81
2023/06/20 00:29:35;;;;;;;10.67;6.47;;;22.50;99.90;;;;;;7286028;19;20192;-82
2023/06/20 00:32:02;;;;;;;9.43;6.03;;;22.50;99.90;;;;;;7306148;19;20192;-79
2023/06/20 00:34:28;;;;;;;11.83;5.70;;;22.10;99.90;;;;;;7311256;19;20301;-81
2023/06/20 00:36:54;;;;;;;10.57;6.13;;;22.00;99.90;;;;;;7288567;19;20184;-80
2023/06/20 00:39:19;;;;;;;11.73;6.10;;;21.80;99.90;;;;;;7288292;19;20657;-80
2023/06/20 00:41:45;;;;;;;9.37;5.73;;;21.70;99.90;;;;;;7285646;19;20588;-80
2023/06/20 00:44:11;;;;;;;10.27;5.83;;;21.70;99.90;;;;;;7289378;19;20212;-80
2023/06/20 00:46:40;;;;;;;11.30;6.40;;;21.70;99.90;;;;;;7289328;19;20699;-80
2023/06/20 00:49:07;;;;;;;10.70;6.30;;;21.80;99.90;;;;;;7289411;19;20228;-80
2023/06/20 00:51:34;;;;;;;12.07;5.73;;;22.00;99.90;;;;;;7292466;19;20189;-80
2023/06/20 00:54:01;;;;;;;10.77;6.60;;;21.90;99.90;;;;;;7310983;19;20609;-81
2023/06/20 00:56:28;;;;;;;9.73;5.73;;;21.80;99.90;;;;;;7288647;19;20547;-80
2023/06/20 00:58:54;;;;;;;10.50;6.33;;;21.70;99.90;;;;;;7288494;19;20201;-81
2023/06/20 01:01:21;;;;;;;12.63;6.53;;;21.70;99.90;;;;;;7287081;19;20201;-81
2023/06/20 01:03:49;;;;;;;12.40;7.20;;;21.70;99.90;;;;;;7288388;19;20268;-81
2023/06/20 01:06:41;;;;;;;10.60;6.40;;;21.70;99.90;;;;;;7288301;19;20199;-81
2023/06/20 01:09:38;;;;;;;9.70;6.20;;;21.70;99.90;;;;;;7184618;19;2004637;-81
2023/06/20 01:12:04;;;;;;;10.50;6.47;;;21.50;99.90;;;;;;7267405;19;20208;-81
2023/06/20 01:14:35;;;;;;;10.87;6.37;;;21.60;99.90;;;;;;7310200;19;20185;-81
2023/06/20 01:17:05;;;;;;;11.40;6.43;;;21.60;99.90;;;;;;7285287;19;20531;-79
2023/06/20 01:19:43;;;;;;;10.10;6.50;;;21.70;99.90;;;;;;7288738;19;20197;-80
2023/06/20 01:22:16;;;;;;;11.63;6.40;;;21.60;99.90;;;;;;7287773;19;20184;-80
2023/06/20 01:24:46;;;;;;;10.47;6.60;;;21.60;99.90;;;;;;7284201;19;20727;-80
2023/06/20 01:27:37;;;;;;;10.20;6.77;;;21.40;99.90;;;;;;7287203;19;20626;-81
2023/06/20 01:30:24;;;;;;;10.90;6.37;;;21.20;99.90;;;;;;7270454;19;20201;-81
2023/06/20 01:32:56;;;;;;;13.50;6.77;;;21.30;99.90;;;;;;7287832;19;20192;-80
2023/06/20 01:35:26;;;;;;;12.63;7.00;;;21.40;99.90;;;;;;7289031;19;20202;-80
2023/06/20 01:37:58;;;;;;;13.20;6.63;;;21.40;99.90;;;;;;7286686;19;20194;-81
2023/06/20 01:40:25;;;;;;;12.27;6.70;;;21.40;99.90;;;;;;7287187;19;20193;-82
2023/06/20 01:42:57;;;;;;;13.23;6.93;;;21.30;99.90;;;;;;7286881;19;21567;-82
2023/06/20 01:45:25;;;;;;;10.93;6.93;;;21.20;99.90;;;;;;7288260;19;20179;-81
2023/06/20 01:47:53;;;;;;;12.33;6.70;;;21.10;99.90;;;;;;7287763;19;20254;-81
2023/06/20 01:50:20;;;;;;;12.50;6.63;;;21.00;99.90;;;;;;7287673;19;20251;-81
2023/06/20 01:52:48;;;;;;;14.60;6.90;;;21.00;99.90;;;;;;7282286;19;20196;-81
2023/06/20 01:55:20;;;;;;;12.07;6.90;;;21.00;99.90;;;;;;7288587;19;20185;-80
2023/06/20 01:57:48;;;;;;;10.90;6.90;;;21.10;99.90;;;;;;7288299;19;20219;-81
2023/06/20 02:00:15;;;;;;;11.47;6.87;;;21.10;99.90;;;;;;7288337;19;20690;-81
2023/06/20 02:02:45;;;;;;;12.07;7.47;;;21.00;99.90;;;;;;7287841;19;20205;-81
2023/06/20 02:05:12;;;;;;;13.23;7.50;;;21.10;99.90;;;;;;7286834;19;20668;-81
2023/06/20 02:07:43;;;;;;;12.70;7.00;;;21.00;99.90;;;;;;7281089;19;20200;-81
2023/06/20 02:10:12;;;;;;;12.53;7.43;;;21.10;99.90;;;;;;7284178;19;20192;-81
2023/06/20 02:12:39;;;;;;;13.30;7.30;;;21.10;99.90;;;;;;7286356;19;20192;-80
2023/06/20 02:15:07;;;;;;;12.17;7.50;;;21.20;99.90;;;;;;7286968;19;20252;-80
2023/06/20 02:17:35;;;;;;;12.60;6.97;;;21.20;99.90;;;;;;7286598;19;20188;-79
2023/06/20 02:20:00;;;;;;;12.97;7.10;;;21.20;99.90;;;;;;7309200;19;20184;-80
2023/06/20 02:22:27;;;;;;;12.67;7.53;;;21.10;99.90;;;;;;7287905;19;20281;-79
2023/06/20 02:25:03;;;;;;;14.13;7.73;;;20.90;99.90;;;;;;7287276;19;20195;-80
2023/06/20 02:27:31;;;;;;;13.40;7.77;;;20.80;99.90;;;;;;7286809;19;20201;-80
2023/06/20 02:29:59;;;;;;;13.67;7.60;;;20.70;99.90;;;;;;7287524;19;20191;-80
2023/06/20 02:32:26;;;;;;;17.60;8.20;;;20.80;99.90;;;;;;7284221;19;20189;-80
2023/06/20 02:34:55;;;;;;;12.33;7.57;;;20.90;99.90;;;;;;7286088;19;20194;-80
2023/06/20 02:37:23;;;;;;;13.47;8.37;;;20.80;99.90;;;;;;7286752;19;20268;-80
2023/06/20 02:39:49;;;;;;;13.83;7.93;;;20.80;99.90;;;;;;7290064;19;20199;-80
2023/06/20 02:42:14;;;;;;;14.33;8.20;;;20.70;99.90;;;;;;7300318;19;20193;-79
2023/06/20 02:44:40;;;;;;;12.43;7.87;;;20.80;99.90;;;;;;7299268;19;20645;-80
2023/06/20 02:47:19;;;;;;;15.43;8.50;;;20.70;99.90;;;;;;7297922;19;20193;-80
2023/06/20 02:49:47;;;;;;;12.67;7.87;;;20.70;99.90;;;;;;7299668;19;20193;-80
2023/06/20 02:52:26;;;;;;;12.10;7.90;;;20.80;99.90;;;;;;7295748;19;20215;-80
2023/06/20 02:55:12;;;;;;;12.87;7.30;;;20.60;99.90;;;;;;7286929;19;20209;-80
2023/06/20 02:57:52;;;;;;;12.97;8.03;;;20.50;99.90;;;;;;7184504;19;2004636;-80
2023/06/20 03:00:19;;;;;;;13.23;7.47;;;20.40;99.90;;;;;;7286888;19;20267;-80
2023/06/20 03:02:53;;;;;;;16.90;7.90;;;20.40;99.90;;;;;;7287202;19;20207;-80
2023/06/20 03:05:22;;;;;;;14.77;8.00;;;20.40;99.90;;;;;;7285120;19;20185;-80
2023/06/20 03:07:48;;;;;;;14.47;7.57;;;20.40;99.90;;;;;;7285396;19;20201;-80
2023/06/20 03:10:15;;;;;;;13.37;7.87;;;20.50;99.90;;;;;;7286613;19;20193;-80
2023/06/20 03:12:41;;;;;;;12.10;7.60;;;20.60;99.90;;;;;;7285139;19;20196;-80
2023/06/20 03:15:07;;;;;;;13.17;8.00;;;20.70;99.90;;;;;;7285385;19;20208;-80
2023/06/20 03:17:35;;;;;;;12.97;8.07;;;20.70;99.90;;;;;;7284445;19;20199;-80
2023/06/20 03:20:04;;;;;;;15.00;8.00;;;20.70;99.90;;;;;;7307046;19;20721;-82
2023/06/20 03:22:31;;;;;;;12.70;8.23;;;20.70;99.90;;;;;;7284984;19;20287;-81
2023/06/20 03:24:56;;;;;;;14.37;8.43;;;20.70;99.90;;;;;;7283518;19;20193;-80
2023/06/20 03:27:22;;;;;;;13.53;7.57;;;20.70;99.90;;;;;;7284923;19;20194;-81
2023/06/20 03:29:48;;;;;;;13.83;7.80;;;20.60;99.90;;;;;;7284746;19;20203;-81
2023/06/20 03:32:13;;;;;;;12.93;7.47;;;20.70;99.90;;;;;;7283180;19;20199;-81
2023/06/20 03:34:39;;;;;;;11.93;7.27;;;20.60;99.90;;;;;;7285339;19;20248;-81
2023/06/20 03:37:06;;;;;;;12.90;7.13;;;20.50;99.90;;;;;;7282111;19;20195;-80
2023/06/20 03:39:32;;;;;;;13.40;7.00;;;20.40;99.90;;;;;;7296861;19;20188;-81
2023/06/20 03:41:58;;;;;;;12.33;7.00;;;20.40;99.90;;;;;;7304654;19;20189;-81
2023/06/20 03:44:27;;;;;;;12.87;7.27;;;20.30;99.90;;;;;;7284954;19;20192;-81
2023/06/20 03:46:54;;;;;;;15.40;7.17;;;20.30;99.90;;;;;;7283615;19;20204;-80
2023/06/20 03:49:19;;;;;;;11.23;7.40;;;20.40;99.90;;;;;;7283050;19;20846;-81
2023/06/20 03:51:46;;;;;;;12.07;6.77;;;20.30;99.90;;;;;;7284717;19;20193;-81
2023/06/20 03:54:12;;;;;;;12.37;7.10;;;20.30;99.90;;;;;;7283063;19;20196;-81
2023/06/20 03:56:38;;;;;;;16.80;7.20;;;20.40;99.90;;;;;;7285191;19;20618;-80
2023/06/20 03:59:03;;;;;;;11.07;6.93;;;20.40;99.90;;;;;;7283569;19;20195;-82
2023/06/20 04:01:29;;;;;;;12.80;7.33;;;20.40;99.90;;;;;;7304596;19;20193;-80
2023/06/20 04:03:55;;;;;;;13.10;6.97;;;20.40;99.90;;;;;;7282915;19;20224;-81
2023/06/20 04:06:29;;;;;;;13.83;6.90;;;20.40;99.90;;;;;;7282860;19;20206;-81
2023/06/20 04:08:57;;;;;;;11.47;6.30;;;20.50;99.90;;;;;;7282928;19;20204;-81
2023/06/20 04:11:24;;;;;;;10.27;6.30;;;20.40;99.90;;;;;;7282625;19;20209;-80
2023/06/20 04:13:49;;;;;;;11.67;6.30;;;20.40;99.90;;;;;;7282657;19;20186;-80
2023/06/20 04:16:15;;;;;;;11.17;6.43;;;20.40;99.90;;;;;;7283501;19;20607;-81
2023/06/20 04:18:41;;;;;;;9.83;6.00;;;20.40;99.90;;;;;;7283051;19;20228;-81
2023/06/20 04:21:07;;;;;;;10.80;6.30;;;20.60;99.90;;;;;;7281510;19;20192;-80
2023/06/20 04:23:34;;;;;;;10.97;6.70;;;20.60;99.90;;;;;;7280594;19;20188;-80
2023/06/20 04:26:01;;;;;;;11.73;6.37;;;20.60;99.90;;;;;;7305807;19;20678;-81
2023/06/20 04:28:27;;;;;;;11.50;6.73;;;20.60;99.90;;;;;;7281031;19;20194;-82
2023/06/20 04:30:59;;;;;;;11.60;6.13;;;21.00;99.90;;;;;;7278146;19;20660;-81
2023/06/20 04:33:25;;;;;;;12.20;6.47;;;21.70;99.90;;;;;;7277433;19;20184;-80
2023/06/20 04:35:57;;;;;;;10.60;6.50;;;22.20;99.90;;;;;;7281190;19;20193;-80
2023/06/20 04:38:24;;;;;;;10.70;6.00;;;22.70;99.90;;;;;;7278359;19;20188;-80
2023/06/20 04:40:50;;;;;;;14.03;6.50;;;23.40;99.90;;;;;;7281965;19;20184;-80
2023/06/20 04:43:15;;;;;;;12.03;5.80;;;23.50;99.90;;;;;;7279933;19;20202;-81
2023/06/20 04:45:41;;;;;;;10.73;6.37;;;23.70;99.90;;;;;;7283834;19;20206;-81
2023/06/20 04:48:07;;;;;;;10.83;6.37;;;24.10;99.90;;;;;;7281648;19;20212;-81
2023/06/20 04:50:33;;;;;;;10.45;5.60;;;24.20;99.90;;;;;;7286594;19;20256;-79
2023/06/20 04:53:00;;;;;;;9.73;5.57;;;24.10;99.90;;;;;;7301405;19;20885;-79
2023/06/20 04:55:26;;;;;;;13.95;6.00;;;24.20;99.90;;;;;;7279316;19;20633;-78
2023/06/20 04:57:54;;;;;;;9.38;5.82;;;24.10;99.90;;;;;;7279740;19;20198;-78
2023/06/20 05:00:20;;;;;;;10.07;5.80;;;23.90;99.90;;;;;;7282529;19;20188;-79
2023/06/20 05:02:47;;;;;;;10.18;5.80;;;23.80;99.90;;;;;;7282391;19;20252;-80
2023/06/20 05:05:12;;;;;;;8.43;5.37;;;23.90;99.90;;;;;;7280462;19;20206;-77
2023/06/20 05:07:42;;;;;;;9.80;5.40;;;24.00;99.90;;;;;;7279690;19;20277;-78
2023/06/20 05:10:08;;;;;;;8.33;5.10;;;23.90;99.90;;;;;;7280538;19;20762;-78
2023/06/20 05:12:34;;;;;;;10.05;5.75;;;24.30;99.90;;;;;;7279266;19;20185;-78
2023/06/20 05:15:00;;;;;;;8.82;5.32;;;25.30;99.90;;;;;;7302712;19;20316;-78
2023/06/20 05:17:26;;;;;;;8.73;4.85;;;25.90;99.90;;;;;;7285141;19;20199;-78
2023/06/20 05:19:51;;;;;;;9.35;5.07;;;25.90;99.90;;;;;;7287917;19;20225;-78
2023/06/20 05:22:17;;;;;;;11.00;5.05;;;26.20;99.90;;;;;;7286728;19;20181;-82
2023/06/20 05:24:43;;;;;;;9.20;4.80;;;27.10;99.90;;;;;;7284600;19;20612;-79
2023/06/20 05:27:09;;;;;;;8.05;4.30;;;27.70;99.90;;;;;;7288507;19;20185;-79
2023/06/20 05:29:34;;;;;;;9.35;4.65;;;27.90;99.90;;;;;;7287117;19;20281;-78
2023/06/20 05:32:00;;;;;;;7.82;4.80;;;28.20;99.90;;;;;;7309878;19;20184;-78
2023/06/20 05:34:26;;;;;;;8.27;4.40;;;28.60;99.90;;;;;;7288378;19;20211;-80
2023/06/20 05:36:52;;;;;;;11.68;5.25;;;28.70;99.90;;;;;;7288329;19;20223;-80
2023/06/20 05:39:18;;;;;;;9.85;3.97;;;28.40;99.90;;;;;;7288133;19;20623;-80
2023/06/20 05:41:44;;;;;;;6.68;4.20;;;28.70;99.90;;;;;;7287367;19;20185;-80
2023/06/20 05:44:09;;;;;;;6.38;4.10;;;29.30;99.90;;;;;;7287354;19;20638;-80
2023/06/20 05:46:35;;;;;;;8.43;4.32;;;30.10;99.90;;;;;;7287838;19;20185;-80
2023/06/20 05:49:02;;;;;;;8.52;4.25;;;29.90;99.90;;;;;;7309293;19;20195;-78
2023/06/20 05:51:29;;;;;;;8.25;4.30;;;30.30;99.90;;;;;;7286705;19;20256;-78
2023/06/20 05:53:58;;;;;;;10.05;4.30;;;29.70;99.90;;;;;;7286237;19;20211;-78
2023/06/20 05:56:24;;;;;;;6.72;4.07;;;29.90;99.90;;;;;;7286526;19;20192;-78
2023/06/20 05:58:50;;;;;;;7.80;4.03;;;29.90;99.90;;;;;;7284449;19;20208;-78
2023/06/20 06:01:16;;;;;;;8.32;4.07;;;29.80;99.90;;;;;;7285306;19;20593;-78
2023/06/20 06:03:42;;;;;;;7.47;3.95;;;29.10;99.90;;;;;;7284936;19;20181;-78
2023/06/20 06:06:11;;;;;;;7.68;4.03;;;29.40;99.90;;;;;;7286679;19;20207;-79
2023/06/20 06:08:36;;;;;;;6.47;3.15;;;30.10;99.90;;;;;;7285257;19;20283;-78
2023/06/20 06:11:02;;;;;;;6.82;3.50;;;30.10;99.90;;;;;;7303405;19;20189;-78
2023/06/20 06:13:28;;;;;;;8.90;4.32;;;29.70;99.90;;;;;;7296473;19;20189;-79
2023/06/20 06:15:54;;;;;;;7.35;4.07;;;29.10;99.90;;;;;;7285638;19;20255;-78
2023/06/20 06:18:20;;;;;;;6.88;3.50;;;29.00;99.90;;;;;;7285114;19;20227;-77
2023/06/20 06:20:45;;;;;;;6.93;3.83;;;29.20;99.90;;;;;;7285854;19;20561;-78
2023/06/20 06:23:11;;;;;;;7.35;4.10;;;29.50;99.90;;;;;;7283779;19;20640;-77
2023/06/20 06:25:37;;;;;;;6.97;3.90;;;29.50;99.90;;;;;;7284959;19;20185;-78
2023/06/20 06:28:02;;;;;;;6.55;3.58;;;29.30;99.90;;;;;;7302178;19;20189;-77
2023/06/20 06:30:28;;;;;;;10.70;3.85;;;30.50;99.90;;;;;;7298950;19;20185;-78
2023/06/20 06:32:54;;;;;;;7.32;3.92;;;31.00;99.90;;;;;;7284588;19;20231;-77
2023/06/20 06:35:20;;;;;;;8.82;3.97;;;30.70;99.90;;;;;;7284736;19;20276;-78
2023/06/20 06:37:47;;;;;;;10.38;4.22;;;31.60;99.90;;;;;;7284160;19;20212;-78
2023/06/20 06:40:13;;;;;;;9.63;3.60;;;30.80;99.90;;;;;;7283472;19;20809;-78
2023/06/20 06:42:39;;;;;;;9.88;3.97;;;30.20;99.90;;;;;;7281910;19;20218;-78
2023/06/20 06:45:07;;;;;;;7.35;4.00;;;30.10;99.90;;;;;;7281984;19;20195;-78
2023/06/20 06:47:34;;;;;;;6.80;3.80;;;30.10;99.90;;;;;;7299514;19;20982;-77
2023/06/20 06:50:00;;;;;;;9.70;4.10;;;29.20;99.90;;;;;;7308304;19;20690;-78
2023/06/20 06:52:25;;;;;;;8.75;3.95;;;29.10;99.90;;;;;;7284504;19;20192;-77
2023/06/20 06:54:51;;;;;;;8.48;4.28;;;29.40;99.90;;;;;;7284225;19;20189;-78
2023/06/20 06:57:17;;;;;;;7.32;3.80;;;29.70;99.90;;;;;;7284574;19;20189;-77
2023/06/20 06:59:42;;;;;;;7.18;3.55;;;29.70;99.90;;;;;;7282105;19;20189;-77
2023/06/20 07:02:08;;;;;;;10.60;4.18;;;30.00;99.90;;;;;;7283893;19;20704;-77
2023/06/20 07:04:34;;;;;;;10.02;3.97;;;30.20;99.90;;;;;;7287374;19;20734;-77
2023/06/20 07:06:59;;;;;;;7.70;3.47;;;30.40;99.90;;;;;;7306795;19;20514;-77
2023/06/20 07:09:25;;;;;;;7.32;3.58;;;30.60;99.90;;;;;;7284275;19;20217;-77
2023/06/20 07:11:51;;;;;;;7.95;3.80;;;30.50;99.90;;;;;;7284230;19;20188;-77
2023/06/20 07:14:16;;;;;;;9.75;3.83;;;31.10;99.90;;;;;;7283102;19;20189;-77
2023/06/20 07:16:42;;;;;;;8.85;3.85;;;31.30;99.90;;;;;;7283913;19;20199;-77
2023/06/20 07:19:07;;;;;;;7.30;3.92;;;31.50;99.90;;;;;;7283560;19;20295;-77
2023/06/20 07:21:33;;;;;;;8.15;3.55;;;32.00;99.90;;;;;;7292020;19;20192;-79
2023/06/20 07:23:59;;;;;;;7.82;3.63;;;31.60;99.90;;;;;;7305804;19;20188;-78
2023/06/20 07:26:24;;;;;;;7.45;3.63;;;32.20;99.90;;;;;;7284320;19;20196;-78
2023/06/20 07:28:50;;;;;;;6.60;3.50;;;32.10;99.90;;;;;;7283028;19;20191;-78
2023/06/20 07:31:19;;;;;;;6.38;3.45;;;31.50;99.90;;;;;;7282655;19;20643;-78
2023/06/20 07:33:45;;;;;;;6.70;3.50;;;30.80;99.90;;;;;;7282772;19;20216;-78
2023/06/20 07:36:11;;;;;;;8.13;3.88;;;30.40;99.90;;;;;;7282777;19;20204;-78
2023/06/20 07:38:37;;;;;;;8.70;3.80;;;31.50;99.90;;;;;;7279885;19;20769;-77
2023/06/20 07:41:03;;;;;;;6.55;3.67;;;32.00;99.90;;;;;;7293441;19;20317;-78
2023/06/20 07:43:29;;;;;;;7.00;3.50;;;32.00;99.90;;;;;;7300351;19;20268;-77
2023/06/20 07:45:55;;;;;;;6.68;3.63;;;32.40;99.90;;;;;;7282792;19;20222;-77
2023/06/20 07:48:24;;;;;;;6.07;3.28;;;32.80;99.90;;;;;;7282465;19;20551;-77
2023/06/20 07:50:50;;;;;;;4.88;3.28;;;34.70;99.90;;;;;;7283760;19;20192;-78
2023/06/20 07:53:15;;;;;;;7.45;3.20;;;35.60;99.90;;;;;;7282582;19;20189;-77
2023/06/20 07:55:41;;;;;;;6.28;3.40;;;37.10;99.90;;;;;;7282214;19;20193;-78
2023/06/20 07:58:08;;;;;;;7.65;3.13;;;37.50;99.90;;;;;;7281425;19;20197;-78
2023/06/20 08:00:33;;;;;;;6.25;3.08;;;36.80;99.90;;;;;;7291722;19;20189;-78
2023/06/20 08:02:59;;;;;;;8.70;3.38;;;36.60;99.90;;;;;;7300201;19;20216;-78
2023/06/20 08:05:25;;;;;;;8.18;3.72;;;36.60;99.90;;;;;;7283106;19;20204;-78
2023/06/20 08:07:50;;;;;;;9.25;3.20;;;37.40;99.70;;;;;;7282491;19;20565;-79
2023/06/20 08:10:16;;;;;;;6.18;3.03;;;37.30;98.50;;;;;;7281966;19;20547;-79
2023/06/20 08:12:42;;;;;;;5.88;3.03;;;37.40;98.10;;;;;;7282295;19;20656;-78
2023/06/20 08:15:08;;;;;;;6.63;3.17;;;36.90;97.10;;;;;;7282344;19;20197;-77
2023/06/20 08:17:33;;;;;;;8.93;3.20;;;35.00;99.60;;;;;;7290771;19;20305;-77
2023/06/20 08:19:59;;;;;;;8.38;3.10;;;34.30;99.90;;;;;;7303997;19;20553;-79
2023/06/20 08:22:28;;;;;;;6.40;3.22;;;34.30;99.90;;;;;;7281065;19;20195;-78
2023/06/20 08:24:54;;;;;;;6.63;2.95;;;34.40;99.90;;;;;;7281939;19;20863;-79
2023/06/20 08:27:19;;;;;;;6.45;2.95;;;35.10;99.90;;;;;;7280159;19;20197;-78
2023/06/20 08:29:45;;;;;;;6.75;3.10;;;36.20;99.90;;;;;;7281671;19;20547;-78
2023/06/20 08:32:11;;;;;;;7.82;3.72;;;36.60;98.50;;;;;;7279913;19;20192;-77
2023/06/20 08:34:38;;;;;;;6.30;2.88;;;35.80;97.60;;;;;;7279986;19;20189;-78
2023/06/20 08:37:04;;;;;;;6.93;3.45;;;36.40;98.30;;;;;;7286352;19;20546;-78
2023/06/20 08:39:30;;;;;;;8.40;2.95;;;37.20;96.60;;;;;;7303144;19;20192;-78
2023/06/20 08:41:55;;;;;;;6.03;2.70;;;37.90;96.40;;;;;;7279666;19;20205;-78
2023/06/20 08:44:21;;;;;;;6.93;2.75;;;38.40;94.90;;;;;;7280579;19;20209;-78
2023/06/20 08:46:47;;;;;;;6.68;2.78;;;38.40;93.10;;;;;;7279570;19;20284;-79
2023/06/20 08:49:14;;;;;;;6.30;2.67;;;39.50;91.30;;;;;;7279930;19;20200;-77
2023/06/20 08:51:44;;;;;;;5.53;3.00;;;39.60;92.00;;;;;;7284473;19;20213;-78
2023/06/20 08:54:13;;;;;;;6.53;3.15;;;39.90;89.90;;;;;;7287870;19;20185;-79
2023/06/20 08:56:39;;;;;;;3.92;2.47;;;39.10;90.00;;;;;;7285728;19;20220;-78
2023/06/20 08:59:05;;;;;;;7.10;2.80;;;37.90;90.90;;;;;;7287750;19;20199;-78
2023/06/20 09:01:35;;;;;;;3.80;2.35;;;38.60;90.40;;;;;;7307634;19;20730;-78
2023/06/20 09:04:01;;;;;;;7.00;2.50;;;38.90;88.80;;;;;;7287599;19;20186;-77
2023/06/20 09:06:37;;;;;;;4.30;2.60;;;38.00;87.50;;;;;;7287551;19;20200;-78
2023/06/20 09:09:13;;;;;;;4.93;2.58;;;37.50;89.00;;;;;;7282030;19;20224;-77
2023/06/20 09:11:39;;;;;;;5.30;2.60;;;37.70;90.40;;;;;;7287453;19;20201;-78
2023/06/20 09:14:05;;;;;;;4.03;2.22;;;38.90;87.60;;;;;;7287408;19;20189;-77
2023/06/20 09:16:31;;;;;;;4.15;2.55;;;39.50;86.20;;;;;;7308867;19;20180;-78
2023/06/20 09:19:03;;;;;;;5.53;2.60;;;40.90;82.10;;;;;;7286957;19;20193;-77
2023/06/20 09:21:29;;;;;;;6.00;2.72;;;40.90;80.60;;;;;;7286875;19;20709;-78
2023/06/20 09:24:05;;;;;;;10.57;2.70;;;40.00;79.70;;;;;;7286338;19;20189;-78
2023/06/20 09:26:31;;;;;;;8.85;2.83;;;39.60;80.20;;;;;;7285918;19;20185;-77
2023/06/20 09:29:15;;;;;;;6.00;2.58;;;40.00;80.20;;;;;;7287224;19;20662;-78
2023/06/20 09:31:49;;;;;;;6.25;2.80;;;38.60;82.30;;;;;;7185157;19;2004456;-77
2023/06/20 09:34:19;;;;;;;4.50;2.65;;;38.20;84.40;;;;;;7286849;19;20204;-77
2023/06/20 09:36:46;;;;;;;3.90;2.35;;;39.10;82.70;;;;;;7285965;19;20189;-78
2023/06/20 09:39:20;;;;;;;6.38;2.83;;;41.00;81.80;;;;;;7286739;19;20204;-78
2023/06/20 09:41:50;;;;;;;4.05;2.60;;;42.40;76.90;;;;;;7286297;19;20538;-78
2023/06/20 09:44:17;;;;;;;4.65;2.35;;;43.30;73.00;;;;;;7284506;19;20204;-79
2023/06/20 09:46:43;;;;;;;6.60;2.92;;;41.70;72.70;;;;;;7284511;19;20599;-77
2023/06/20 09:49:13;;;;;;;5.05;2.55;;;41.20;74.10;;;;;;7286463;19;20289;-77
2023/06/20 09:51:49;;;;;;;6.13;2.97;;;41.50;73.50;;;;;;7284843;19;20252;-78
2023/06/20 09:54:38;;;;;;;6.05;3.30;;;39.40;76.40;;;;;;7284279;19;20203;-78
2023/06/20 09:57:08;;;;;;;5.88;3.08;;;38.30;78.60;;;;;;7272651;19;20200;-79
2023/06/20 09:59:38;;;;;;;5.50;3.15;;;37.70;80.00;;;;;;7293176;19;20185;-77
2023/06/20 10:02:07;;;;;;;4.82;3.08;;;38.30;79.90;;;;;;7293480;19;20291;-77
2023/06/20 10:04:39;;;;;;;7.22;3.35;;;37.80;81.70;;;;;;7301021;19;20680;-78
2023/06/20 10:07:05;;;;;;;4.78;3.15;;;38.60;81.30;;;;;;7286282;19;20185;-77
2023/06/20 10:09:31;;;;;;;5.40;2.75;;;39.50;78.40;;;;;;7306398;19;20644;-78
2023/06/20 10:11:57;;;;;;;5.55;3.33;;;38.90;79.60;;;;;;7284883;19;20189;-78
2023/06/20 10:14:24;;;;;;;6.10;2.97;;;39.50;78.20;;;;;;7282332;19;20209;-78
2023/06/20 10:16:52;;;;;;;5.40;3.10;;;38.30;78.80;;;;;;7281640;19;20184;-78
2023/06/20 10:19:19;;;;;;;5.63;3.53;;;39.00;80.70;;;;;;7284088;19;20747;-78
2023/06/20 10:22:01;;;;;;;5.47;2.95;;;38.70;79.40;;;;;;7283914;19;20543;-78
2023/06/20 10:24:29;;;;;;;5.88;3.60;;;38.50;79.00;;;;;;7284500;19;20185;-79
2023/06/20 10:27:03;;;;;;;10.13;3.38;;;38.00;80.50;;;;;;7285109;19;20605;-78
2023/06/20 10:29:29;;;;;;;4.97;3.22;;;37.10;81.00;;;;;;7284958;19;20221;-79
2023/06/20 10:32:01;;;;;;;6.10;3.13;;;36.40;83.70;;;;;;7286459;19;20196;-79
2023/06/20 10:34:40;;;;;;;6.43;3.30;;;38.80;83.50;;;;;;7283598;19;20217;-78
2023/06/20 10:37:24;;;;;;;5.68;3.35;;;39.80;77.30;;;;;;7262183;19;20181;-78
2023/06/20 10:39:58;;;;;;;4.00;3.00;;;40.30;76.50;;;;;;7283588;19;20662;-78
2023/06/20 10:42:42;;;;;;;5.63;2.90;;;40.20;75.70;;;;;;7282451;19;20209;-78
2023/06/20 10:45:29;;;;;;;6.70;2.95;;;40.80;73.40;;;;;;7180148;19;2005967;-78
2023/06/20 10:47:56;;;;;;;5.43;3.35;;;41.00;72.20;;;;;;7283825;19;20201;-79
2023/06/20 10:50:23;;;;;;;4.35;2.78;;;41.10;70.70;;;;;;7282799;19;20632;-78
2023/06/20 10:52:49;;;;;;;5.60;3.13;;;40.30;73.30;;;;;;7283805;19;20189;-78
2023/06/20 10:55:28;;;;;;;4.18;2.78;;;39.70;74.10;;;;;;7280626;19;20204;-78
2023/06/20 10:57:55;;;;;;;5.78;3.17;;;38.80;75.30;;;;;;7282094;19;20189;-78
2023/06/20 11:00:24;;;;;;;4.78;3.03;;;38.10;76.30;;;;;;7281886;19;20209;-78
2023/06/20 11:02:52;;;;;;;11.65;3.78;;;38.50;76.20;;;;;;7282088;19;20660;-78
2023/06/20 11:05:17;;;;;;;13.55;3.78;;;37.80;76.50;;;;;;7283541;19;20185;-78
2023/06/20 11:08:01;;;;;;;6.30;3.40;;;37.90;77.90;;;;;;7283921;19;20189;-78
2023/06/20 11:10:34;;;;;;;7.50;3.58;;;37.40;76.10;;;;;;7284416;19;20189;-78
2023/06/20 11:13:06;;;;;;;5.32;3.20;;;38.00;76.60;;;;;;7281697;19;20193;-77
2023/06/20 11:15:36;;;;;;;6.07;3.35;;;37.00;76.50;;;;;;7282601;19;20273;-77
2023/06/20 11:18:03;;;;;;;7.45;3.17;;;37.30;77.40;;;;;;7282544;19;20209;-79
2023/06/20 11:20:35;;;;;;;6.60;3.10;;;38.90;77.20;;;;;;7283246;19;20249;-78
2023/06/20 11:23:03;;;;;;;6.15;3.22;;;39.70;72.10;;;;;;7282484;19;20189;-78
2023/06/20 11:25:31;;;;;;;4.50;3.08;;;38.10;73.80;;;;;;7283115;19;20759;-78
2023/06/20 11:28:13;;;;;;;5.50;3.20;;;37.60;76.00;;;;;;7283175;19;20202;-78
2023/06/20 11:30:44;;;;;;;9.18;3.35;;;38.40;74.80;;;;;;7179864;19;2004760;-78
2023/06/20 11:33:14;;;;;;;4.82;3.00;;;38.90;74.60;;;;;;7282257;19;20188;-77
2023/06/20 11:35:47;;;;;;;5.55;3.42;;;40.20;72.00;;;;;;7282654;19;20965;-78
2023/06/20 11:38:27;;;;;;;7.20;3.17;;;40.50;72.50;;;;;;7281869;19;20360;-78
2023/06/20 11:41:07;;;;;;;5.35;3.10;;;40.90;71.40;;;;;;7283232;19;21215;-78
2023/06/20 11:43:36;;;;;;;7.70;3.13;;;41.60;69.00;;;;;;7282202;19;20202;-78
2023/06/20 11:46:02;;;;;;;8.63;3.13;;;40.90;66.70;;;;;;7283020;19;20184;-78
2023/06/20 11:48:28;;;;;;;5.10;3.00;;;40.70;66.70;;;;;;7282748;19;20229;-78
2023/06/20 11:50:56;;;;;;;5.63;2.92;;;40.20;68.00;;;;;;7281276;19;20204;-78
2023/06/20 11:53:33;;;;;;;4.82;3.00;;;39.90;67.70;;;;;;7282651;19;20971;-78
2023/06/20 11:56:02;;;;;;;4.28;2.85;;;39.80;69.10;;;;;;7281775;19;20184;-78
2023/06/20 11:58:35;;;;;;;5.57;2.97;;;40.10;70.00;;;;;;7282601;19;20188;-78
2023/06/20 12:01:11;;;;;;;6.68;3.20;;;39.40;67.50;;;;;;7281767;19;20212;-78
2023/06/20 12:03:38;;;;;;;4.80;2.90;;;37.30;69.30;;;;;;7259052;19;20215;-77
2023/06/20 12:06:29;;;;;;;6.85;3.13;;;36.60;72.80;;;;;;7290589;19;20184;-77
2023/06/20 12:08:57;;;;;;;6.68;3.47;;;36.40;73.10;;;;;;7278948;19;20201;-77
2023/06/20 12:11:23;;;;;;;7.93;3.08;;;36.70;75.80;;;;;;7282063;19;20200;-78
2023/06/20 12:13:49;;;;;;;5.10;3.10;;;36.80;76.10;;;;;;7282571;19;20187;-78
2023/06/20 12:16:15;;;;;;;8.30;3.10;;;36.70;75.60;;;;;;7280662;19;20184;-77
2023/06/20 12:18:42;;;;;;;5.22;3.10;;;36.80;75.40;;;;;;7279581;19;20695;-78
2023/06/20 12:21:07;;;;;;;5.53;3.38;;;36.10;76.90;;;;;;7279656;19;20295;-78
2023/06/20 12:23:34;;;;;;;5.78;3.40;;;35.20;77.20;;;;;;7294525;19;20898;-78
2023/06/20 12:26:00;;;;;;;4.63;3.28;;;34.60;79.80;;;;;;7308252;19;20184;-78
2023/06/20 12:28:25;;;;;;;7.70;3.47;;;33.60;81.00;;;;;;7287636;19;20643;-77
2023/06/20 12:30:51;;;;;;;6.80;3.88;;;33.10;83.20;;;;;;7288089;19;20230;-78
2023/06/20 12:33:18;;;;;;;7.20;3.58;;;33.10;85.60;;;;;;7286972;19;20195;-78
2023/06/20 12:35:44;;;;;;;5.72;3.40;;;33.00;84.00;;;;;;7288244;19;20199;-77
2023/06/20 12:38:10;;;;;;;4.85;3.25;;;33.40;83.70;;;;;;7287577;19;20184;-78
2023/06/20 12:40:36;;;;;;;7.00;3.10;;;34.10;87.10;;;;;;7287913;19;20196;-78
2023/06/20 12:43:02;;;;;;;6.35;3.15;;;35.00;83.10;;;;;;7308591;19;20192;-78
2023/06/20 12:45:28;;;;;;;7.53;3.00;;;35.60;81.40;;;;;;7285186;19;20204;-78
2023/06/20 12:47:54;;;;;;;6.00;3.40;;;35.20;80.20;;;;;;7285493;19;20182;-78